Time;durP1;ratioP1;P1;durP2;ratioP2;P2;SDS_P1;SDS_P2;PMS_P1;PMS_P2;Temp;Humidity;BMP_temperature;BMP_pressure;BME280_temperature;BME280_humidity;BME280_pressure;Samples;Min_cycle;Max_cycle;Signal;HPM_P1;HPM_P2
2022/02/09 00:09:21;;;;;;;12.00;4.53;;;6.50;99.90;;;;;;5033935;28;20124;-72
2022/02/09 00:12:02;;;;;;;11.50;4.72;;;6.40;99.90;;;;;;5033384;28;20025;-72
2022/02/09 00:14:51;;;;;;;10.68;4.30;;;6.50;99.90;;;;;;5034006;28;20463;-71
2022/02/09 00:28:06;;;;;;;12.13;3.55;;;6.50;99.90;;;;;;5049362;28;20497;-71
2022/02/09 01:55:50;;;;;;;6.57;3.08;;;6.50;99.90;;;;;;5030713;28;20471;-73
2022/02/09 01:58:18;;;;;;;7.90;3.65;;;6.40;99.90;;;;;;5031536;28;20033;-73
2022/02/09 02:00:43;;;;;;;10.65;3.53;;;6.40;99.90;;;;;;5031175;28;20032;-71
2022/02/09 02:03:09;;;;;;;8.77;3.50;;;6.40;99.90;;;;;;5032050;28;20104;-72
2022/02/09 02:05:35;;;;;;;8.30;3.55;;;6.40;99.90;;;;;;5031629;28;20025;-71
2022/02/09 02:08:07;;;;;;;9.05;3.30;;;6.40;99.90;;;;;;5032090;28;20043;-71
2022/02/09 02:13:40;;;;;;;8.27;3.67;;;6.40;99.90;;;;;;5031930;28;20032;-71
2022/02/09 02:18:44;;;;;;;10.30;3.60;;;6.30;99.90;;;;;;5031098;28;20034;-71
2022/02/09 02:29:06;;;;;;;6.05;2.90;;;6.40;99.90;;;;;;5030706;28;20481;-72
2022/02/09 02:34:46;;;;;;;6.55;3.03;;;6.30;99.90;;;;;;5031615;28;20033;-72
2022/02/09 02:37:39;;;;;;;8.52;3.03;;;6.30;99.90;;;;;;5031203;28;20045;-72
2022/02/09 03:20:56;;;;;;;5.57;2.55;;;6.30;99.90;;;;;;5050368;28;20508;-71
2022/02/09 03:57:46;;;;;;;8.82;3.13;;;6.30;99.90;;;;;;5033041;28;20053;-71
2022/02/09 04:00:17;;;;;;;10.43;4.03;;;6.20;99.90;;;;;;5033939;28;20083;-71
2022/02/09 04:02:51;;;;;;;9.43;2.97;;;6.30;99.90;;;;;;5033234;28;20025;-71
2022/02/09 04:05:18;;;;;;;8.55;3.30;;;6.20;99.90;;;;;;5033848;28;20048;-71
2022/02/09 04:07:45;;;;;;;10.18;3.05;;;6.30;99.90;;;;;;5033272;28;20060;-71
2022/02/09 04:10:15;;;;;;;10.40;2.83;;;6.20;99.90;;;;;;5033700;28;20041;-71
2022/02/09 04:12:52;;;;;;;9.13;3.25;;;6.20;99.90;;;;;;5032859;28;20049;-70
2022/02/09 04:16:09;;;;;;;6.20;2.50;;;6.20;99.90;;;;;;5033987;28;20022;-72
2022/02/09 04:18:23;;;;;;;5.93;2.08;;;6.30;99.90;;;;;;5032413;28;20042;-72
2022/02/09 04:37:05;;;;;;;3.22;1.50;;;6.50;99.90;;;;;;5033013;28;20048;-71
2022/02/09 04:39:50;;;;;;;3.15;2.05;;;6.50;99.90;;;;;;5032883;28;20041;-71
2022/02/09 04:42:40;;;;;;;4.43;1.70;;;6.60;99.90;;;;;;5036988;28;20017;-71
2022/02/09 04:45:55;;;;;;;6.90;1.88;;;6.60;99.90;;;;;;5053152;28;20041;-71
2022/02/09 04:48:26;;;;;;;2.85;1.38;;;6.60;99.90;;;;;;5051247;28;20037;-72
2022/02/09 04:51:15;;;;;;;2.20;1.38;;;6.60;99.90;;;;;;5051942;28;20051;-71
2022/02/09 05:02:03;;;;;;;5.53;1.70;;;6.70;99.90;;;;;;5052767;28;20498;-71
2022/02/09 05:28:04;;;;;;;4.25;1.40;;;6.70;99.90;;;;;;5051614;28;20143;-72
2022/02/09 05:30:30;;;;;;;5.63;2.08;;;6.70;99.90;;;;;;5052064;28;20116;-73
2022/02/09 05:32:56;;;;;;;7.35;2.10;;;6.70;99.90;;;;;;5051559;28;20204;-73
2022/02/09 05:35:22;;;;;;;5.97;1.70;;;6.70;99.90;;;;;;5052253;28;20381;-72
2022/02/09 05:37:52;;;;;;;5.88;2.05;;;6.70;99.90;;;;;;5051497;28;20031;-72
2022/02/09 05:40:19;;;;;;;5.10;1.80;;;6.70;99.90;;;;;;5052006;28;20032;-71
2022/02/09 05:42:44;;;;;;;3.00;1.85;;;6.80;99.90;;;;;;5051137;28;20129;-72
2022/02/09 05:45:12;;;;;;;4.32;1.65;;;6.80;99.90;;;;;;5051918;28;20544;-72
2022/02/09 05:48:16;;;;;;;7.22;1.90;;;6.80;99.90;;;;;;5051298;28;20037;-72
2022/02/09 05:50:38;;;;;;;6.65;1.98;;;6.80;99.90;;;;;;5051068;28;20029;-72
2022/02/09 05:53:10;;;;;;;4.25;1.83;;;6.80;99.90;;;;;;5051168;28;20071;-71
2022/02/09 05:58:35;;;;;;;2.72;1.88;;;6.80;99.90;;;;;;5051667;28;20127;-72
2022/02/09 06:01:02;;;;;;;3.60;1.63;;;6.80;99.90;;;;;;5051544;28;20036;-73
2022/02/09 06:03:28;;;;;;;4.68;1.42;;;6.80;99.90;;;;;;5051090;28;20037;-72
2022/02/09 06:05:53;;;;;;;7.22;1.92;;;6.80;99.90;;;;;;5051266;28;20036;-72
2022/02/09 06:08:22;;;;;;;4.28;1.52;;;6.80;99.90;;;;;;5051420;28;20381;-71
2022/02/09 06:10:53;;;;;;;4.72;1.33;;;6.80;99.90;;;;;;5051008;28;20120;-71
2022/02/09 06:13:27;;;;;;;3.22;1.50;;;6.70;99.90;;;;;;5051316;28;20032;-71
2022/02/09 06:21:08;;;;;;;4.75;2.00;;;6.70;99.90;;;;;;5052196;28;20121;-71
2022/02/09 06:23:34;;;;;;;8.02;1.52;;;6.70;99.90;;;;;;5051630;28;20104;-71
2022/02/09 06:26:04;;;;;;;4.00;1.60;;;6.70;99.90;;;;;;5051530;28;20128;-73
2022/02/09 06:28:30;;;;;;;7.15;2.08;;;6.80;99.90;;;;;;5051937;28;20358;-72
2022/02/09 06:30:57;;;;;;;6.53;1.70;;;6.90;99.90;;;;;;5049189;28;20067;-72
2022/02/09 06:33:23;;;;;;;5.57;1.80;;;6.90;99.90;;;;;;5051985;28;20033;-72
2022/02/09 06:35:49;;;;;;;7.22;1.73;;;6.90;99.90;;;;;;5051028;28;20094;-72
2022/02/09 06:38:16;;;;;;;3.42;1.50;;;6.90;99.90;;;;;;5051617;28;20021;-72
2022/02/09 06:40:45;;;;;;;8.13;2.50;;;6.90;99.90;;;;;;5051101;28;20041;-71
2022/02/09 06:43:12;;;;;;;5.78;1.90;;;6.90;99.90;;;;;;5051435;28;20471;-71
2022/02/09 06:45:40;;;;;;;8.73;2.13;;;6.90;99.90;;;;;;5050959;28;20569;-70
2022/02/09 06:48:16;;;;;;;7.32;2.13;;;6.90;99.90;;;;;;5051961;28;20025;-73
2022/02/09 06:50:47;;;;;;;6.88;2.20;;;6.90;99.90;;;;;;5051102;28;20032;-73
2022/02/09 06:55:53;;;;;;;6.05;1.88;;;6.90;99.90;;;;;;5050853;28;20029;-71
2022/02/09 06:58:42;;;;;;;5.32;2.05;;;6.90;99.90;;;;;;5051942;28;20450;-75
2022/02/09 07:01:08;;;;;;;4.90;1.80;;;6.90;99.90;;;;;;5050814;28;20585;-69
2022/02/09 07:03:35;;;;;;;7.15;1.80;;;6.90;99.90;;;;;;5053693;28;20377;-78
2022/02/09 07:06:00;;;;;;;3.63;1.70;;;6.90;99.90;;;;;;5052092;28;20029;-75
2022/02/09 07:08:27;;;;;;;5.15;1.88;;;6.90;99.90;;;;;;5035265;28;20038;-80
2022/02/09 07:10:53;;;;;;;8.45;2.20;;;6.80;99.90;;;;;;5034524;28;20528;-82
2022/02/09 07:13:19;;;;;;;5.45;2.17;;;6.80;99.90;;;;;;5035599;28;20029;-76
2022/02/09 07:15:50;;;;;;;4.45;1.98;;;6.70;99.90;;;;;;5034594;28;20022;-69
2022/02/09 07:18:16;;;;;;;5.38;2.17;;;6.60;99.90;;;;;;5039205;28;20100;-70
2022/02/09 07:26:04;;;;;;;4.72;2.38;;;6.30;99.90;;;;;;5053076;28;20033;-71
2022/02/09 07:28:29;;;;;;;8.32;2.67;;;6.20;99.90;;;;;;5054584;28;20025;-71
2022/02/09 07:30:55;;;;;;;10.88;2.80;;;6.10;99.90;;;;;;5053631;28;20032;-70
2022/02/09 07:33:21;;;;;;;6.55;2.60;;;6.00;99.90;;;;;;5054818;28;20029;-70
2022/02/09 07:35:47;;;;;;;8.52;3.10;;;5.90;99.90;;;;;;5053648;28;20035;-70
2022/02/09 07:38:13;;;;;;;7.90;2.97;;;5.90;99.90;;;;;;5053762;28;20021;-70
2022/02/09 07:40:42;;;;;;;6.22;2.60;;;5.90;99.90;;;;;;5054284;28;20466;-72
2022/02/09 07:43:13;;;;;;;9.95;2.63;;;5.90;99.90;;;;;;5052819;28;20362;-70
2022/02/09 07:50:47;;;;;;;9.15;2.90;;;5.80;99.90;;;;;;5074069;28;20348;-70
2022/02/09 07:53:24;;;;;;;8.63;2.13;;;5.80;99.90;;;;;;5053975;28;20381;-70
2022/02/09 07:55:50;;;;;;;8.07;2.72;;;5.80;99.90;;;;;;5053280;28;20449;-70
2022/02/09 07:58:15;;;;;;;8.40;2.58;;;5.80;99.90;;;;;;5054460;28;20052;-70
2022/02/09 08:00:42;;;;;;;5.97;2.42;;;5.80;99.90;;;;;;5053602;28;20045;-70
2022/02/09 08:03:09;;;;;;;9.63;2.70;;;5.90;99.90;;;;;;5053988;28;20024;-71
2022/02/09 08:05:35;;;;;;;7.88;2.67;;;5.80;99.90;;;;;;5053870;28;20056;-70
2022/02/09 08:08:01;;;;;;;5.43;2.40;;;5.90;99.90;;;;;;5052503;28;20056;-70
2022/02/09 08:10:53;;;;;;;5.05;2.33;;;5.90;99.90;;;;;;5053614;28;20029;-70
2022/02/09 08:34:59;;;;;;;11.13;2.90;;;6.40;99.90;;;;;;5052667;28;20032;-71
2022/02/09 08:37:25;;;;;;;11.77;4.35;;;6.40;99.90;;;;;;5052714;28;20024;-71
2022/02/09 08:39:53;;;;;;;10.65;3.45;;;6.50;99.90;;;;;;5052472;28;20368;-71
2022/02/09 08:42:19;;;;;;;7.38;3.15;;;6.60;99.90;;;;;;5053093;28;20025;-71
2022/02/09 08:44:45;;;;;;;12.75;3.22;;;6.70;99.90;;;;;;5052598;28;20070;-70
2022/02/09 08:47:12;;;;;;;9.23;2.78;;;6.70;99.90;;;;;;5053295;28;20033;-71
2022/02/09 08:49:38;;;;;;;7.88;3.65;;;6.80;99.90;;;;;;5070229;28;20462;-71
2022/02/09 08:52:05;;;;;;;6.55;3.13;;;6.90;99.90;;;;;;5071486;28;20032;-70
2022/02/09 08:54:31;;;;;;;6.68;2.88;;;7.00;99.90;;;;;;5072874;28;20465;-70
2022/02/09 08:56:58;;;;;;;7.00;2.75;;;7.10;99.90;;;;;;5071775;28;20044;-71
2022/02/09 08:59:27;;;;;;;13.68;3.15;;;7.20;99.90;;;;;;5072894;28;20071;-71
2022/02/09 09:02:01;;;;;;;10.17;3.57;;;7.20;99.90;;;;;;5072067;28;20040;-70
2022/02/09 09:04:43;;;;;;;10.57;3.25;;;7.30;99.90;;;;;;5072752;28;20283;-71
2022/02/09 09:07:16;;;;;;;9.13;3.13;;;7.50;99.90;;;;;;5072148;28;20064;-70
2022/02/09 09:40:18;;;;;;;10.63;3.40;;;8.10;99.90;;;;;;5049417;28;20017;-71
2022/02/09 10:02:08;;;;;;;9.43;3.53;;;8.90;99.90;;;;;;5070970;28;20109;-70
2022/02/09 10:05:00;;;;;;;9.10;3.28;;;8.90;99.90;;;;;;5071717;28;20020;-70
2022/02/09 10:34:03;;;;;;;9.55;3.53;;;9.30;99.90;;;;;;5059239;28;20040;-70
2022/02/09 10:36:30;;;;;;;8.38;3.65;;;9.30;99.90;;;;;;5071513;28;20488;-71
2022/02/09 10:39:08;;;;;;;10.70;3.83;;;9.40;99.90;;;;;;5072809;28;20036;-71
2022/02/09 10:41:41;;;;;;;18.10;4.38;;;9.50;99.90;;;;;;5075434;28;20017;-71
2022/02/09 10:44:08;;;;;;;9.25;3.47;;;9.60;99.90;;;;;;5055929;28;20031;-71
2022/02/09 10:46:56;;;;;;;9.32;3.78;;;9.70;99.90;;;;;;5055373;28;20025;-71
2022/02/09 10:49:26;;;;;;;6.90;3.05;;;9.80;99.90;;;;;;5070746;28;20032;-71
2022/02/09 10:54:23;;;;;;;10.98;3.75;;;9.80;99.90;;;;;;5075467;28;20123;-71
2022/02/09 10:56:57;;;;;;;10.55;3.67;;;10.00;99.90;;;;;;5074434;28;20080;-70
2022/02/09 10:59:28;;;;;;;9.73;4.15;;;10.20;99.90;;;;;;5074902;28;20450;-71
2022/02/09 11:01:56;;;;;;;8.48;3.30;;;10.20;99.90;;;;;;5073538;28;20473;-71
2022/02/09 11:04:22;;;;;;;9.77;3.20;;;10.40;99.90;;;;;;5074570;28;20502;-71
2022/02/09 11:06:49;;;;;;;8.20;3.22;;;10.50;99.90;;;;;;5074268;28;20108;-71
2022/02/09 11:09:18;;;;;;;10.73;3.53;;;10.60;99.90;;;;;;5074816;28;20032;-71
2022/02/09 11:11:44;;;;;;;7.47;3.47;;;10.60;99.90;;;;;;5074251;28;20028;-71
2022/02/09 11:14:22;;;;;;;16.13;4.35;;;10.70;99.90;;;;;;5074498;28;20085;-72
2022/02/09 11:17:00;;;;;;;9.00;3.78;;;10.70;99.90;;;;;;5074072;28;20029;-70
2022/02/09 11:19:39;;;;;;;13.13;3.95;;;10.70;99.90;;;;;;5074561;28;20030;-71
2022/02/09 11:22:11;;;;;;;9.18;3.30;;;10.70;99.90;;;;;;5074305;28;20033;-71
2022/02/09 11:24:44;;;;;;;9.10;3.53;;;10.80;99.90;;;;;;5074563;28;20025;-72
2022/02/09 11:27:16;;;;;;;8.70;3.20;;;10.90;99.90;;;;;;5065807;28;20119;-73
2022/02/09 11:30:03;;;;;;;10.35;4.22;;;11.00;99.90;;;;;;5068328;28;20024;-70
2022/02/09 11:40:45;;;;;;;9.18;2.58;;;11.30;99.90;;;;;;5041614;28;20025;-72
2022/02/09 12:00:05;;;;;;;7.57;3.08;;;11.70;99.00;;;;;;5065982;28;20119;-70
2022/02/09 12:11:26;;;;;;;9.20;3.17;;;11.80;98.80;;;;;;5061620;28;20055;-72
2022/02/09 12:14:13;;;;;;;7.15;2.33;;;11.90;97.40;;;;;;5057770;28;20040;-72
2022/02/09 12:19:30;;;;;;;5.18;2.20;;;11.90;98.20;;;;;;5066381;28;20497;-72
2022/02/09 12:24:28;;;;;;;8.45;2.65;;;12.10;98.30;;;;;;5056643;28;20476;-71
2022/02/09 12:27:02;;;;;;;6.85;2.92;;;12.10;98.00;;;;;;5065421;28;20025;-72
2022/02/09 12:29:36;;;;;;;9.85;2.83;;;12.20;97.40;;;;;;5053292;28;20043;-72
2022/02/09 12:32:14;;;;;;;6.95;2.63;;;12.20;97.30;;;;;;5069476;28;20028;-71
2022/02/09 12:34:43;;;;;;;3.92;2.45;;;12.30;96.40;;;;;;5059951;28;20039;-72
2022/02/09 12:37:15;;;;;;;4.95;2.65;;;12.30;96.50;;;;;;5052491;28;20036;-71
2022/02/09 12:39:52;;;;;;;7.78;2.78;;;12.30;97.00;;;;;;5066805;28;20107;-72
2022/02/09 12:42:19;;;;;;;7.38;2.28;;;12.30;97.20;;;;;;5056517;28;20078;-72
2022/02/09 12:45:04;;;;;;;4.10;2.10;;;12.30;96.90;;;;;;5065482;28;20424;-72
2022/02/09 12:47:41;;;;;;;4.18;2.30;;;12.40;95.90;;;;;;5065002;28;20032;-71
2022/02/09 12:50:24;;;;;;;7.70;2.13;;;12.50;95.80;;;;;;5071567;28;20016;-72
2022/02/09 12:52:51;;;;;;;8.07;2.30;;;12.50;96.30;;;;;;5058968;28;20035;-72
2022/02/09 12:55:23;;;;;;;8.68;2.42;;;12.50;96.50;;;;;;5062461;28;20459;-72
2022/02/09 12:58:00;;;;;;;5.10;2.20;;;12.60;96.10;;;;;;5066485;28;20048;-70
2022/02/09 13:00:27;;;;;;;6.82;1.98;;;12.80;96.20;;;;;;5039430;28;20111;-72
2022/02/09 13:02:58;;;;;;;5.60;2.20;;;13.10;94.40;;;;;;5064786;28;20144;-72
2022/02/09 13:05:25;;;;;;;7.30;2.40;;;14.10;90.40;;;;;;5063977;28;20055;-72
2022/02/09 13:07:51;;;;;;;5.28;2.30;;;14.10;90.10;;;;;;5056883;28;20037;-71
2022/02/09 13:10:23;;;;;;;7.68;2.20;;;;;;;;;;5058931;28;20045;-72
2022/02/09 13:12:49;;;;;;;5.40;1.85;;;;;;;;;;5063498;28;20029;-71
2022/02/09 13:15:21;;;;;;;8.20;2.30;;;;;;;;;;5062579;28;20496;-72
2022/02/09 13:18:00;;;;;;;7.35;2.58;;;;;;;;;;5060557;28;20032;-72
2022/02/09 14:13:16;;;;;;;3.78;1.60;;;;;;;;;;5062029;28;20033;-72
2022/02/09 14:35:02;;;;;;;4.50;1.95;;;;;;;;;;5054049;28;20654;-72
2022/02/09 14:48:41;;;;;;;3.03;1.58;;;;;;;;;;5067474;28;20043;-72
2022/02/09 14:56:13;;;;;;;2.58;1.58;;;;;;;;;;5052723;28;20231;-77
2022/02/09 14:58:42;;;;;;;1.98;1.42;;;;;;;;;;5065084;28;20094;-70
2022/02/09 15:06:41;;;;;;;3.50;1.38;;;;;;;;;;5066779;28;20032;-71
2022/02/09 15:09:10;;;;;;;4.47;1.55;;;;;;;;;;5049531;28;20116;-71
2022/02/09 15:11:54;;;;;;;3.38;1.35;;;;;;;;;;5057403;28;20028;-71
2022/02/09 15:14:37;;;;;;;3.97;1.42;;;;;;;;;;5054319;28;20029;-70
2022/02/09 15:18:10;;;;;;;3.97;1.48;;;;;;;;;;5061743;28;20047;-70
2022/02/09 15:22:40;;;;;;;4.78;1.80;;;;;;;;;;5038235;28;20044;-72
2022/02/09 15:25:17;;;;;;;5.00;1.65;;;;;;;;;;5064402;28;20025;-71
2022/02/09 15:27:44;;;;;;;4.50;1.67;;;;;;;;;;5068673;28;20021;-72
2022/02/09 15:30:10;;;;;;;7.63;2.20;;;;;;;;;;5057270;28;20800;-71
2022/02/09 15:32:44;;;;;;;5.97;1.75;;;;;;;;;;5069260;28;20029;-72
2022/02/09 15:35:30;;;;;;;7.60;2.20;;;;;;;;;;5063708;28;20023;-72
2022/02/09 15:38:23;;;;;;;6.70;2.10;;;;;;;;;;5057748;28;20176;-72
2022/02/09 15:41:03;;;;;;;6.28;2.08;;;;;;;;;;5045452;28;20036;-72
2022/02/09 16:21:41;;;;;;;12.35;3.20;;;;;;;;;;5068026;28;20032;-71
2022/02/09 16:23:42;;;;;;;11.65;2.90;;;;;;;;;;5059246;28;20068;-71
2022/02/09 16:35:37;;;;;;;4.00;2.20;;;;;;;;;;5042037;28;20039;-70
2022/02/09 16:45:33;;;;;;;8.18;2.33;;;;;;;;;;5053946;28;20075;-70
2022/02/09 16:48:02;;;;;;;5.15;2.30;;;;;;;;;;5065241;28;20013;-69
2022/02/09 16:50:38;;;;;;;4.20;2.13;;;;;;;;;;5072607;28;20048;-70
2022/02/09 16:53:33;;;;;;;3.40;2.03;;;;;;;;;;5071496;28;20386;-70
2022/02/09 16:56:18;;;;;;;4.63;2.70;;;;;;;;;;5071795;28;20039;-70
2022/02/09 17:20:24;;;;;;;11.32;3.63;;;;;;;;;;5072078;28;20346;-70
2022/02/09 17:22:50;;;;;;;6.20;2.97;;;;;;;;;;5072360;28;20382;-70
2022/02/09 17:25:17;;;;;;;6.45;3.00;;;;;;;;;;5071515;28;20064;-71
2022/02/09 17:27:46;;;;;;;5.97;3.13;;;;;;;;;;5072268;28;20488;-71
2022/02/09 17:30:44;;;;;;;8.68;3.10;;;;;;;;;;5071457;28;20028;-71
2022/02/09 17:35:47;;;;;;;15.75;5.15;;;;;;;;;;5071886;28;20033;-70
2022/02/09 17:57:02;;;;;;;13.77;4.35;;;6.80;99.90;;;;;;5051758;28;20068;-70
2022/02/09 17:59:31;;;;;;;8.85;3.25;;;6.80;99.90;;;;;;5052224;28;20048;-70
2022/02/09 18:01:56;;;;;;;6.82;3.88;;;6.80;99.90;;;;;;5051165;28;20021;-68
2022/02/09 18:04:23;;;;;;;11.75;4.40;;;6.80;99.90;;;;;;5055099;28;20063;-69
2022/02/09 18:07:04;;;;;;;8.20;4.38;;;6.80;99.90;;;;;;5071105;28;20568;-69
2022/02/09 18:09:38;;;;;;;11.63;5.18;;;6.80;99.90;;;;;;5071771;28;20381;-70
2022/02/09 18:15:23;;;;;;;10.07;4.00;;;6.70;99.90;;;;;;5056758;28;20083;-71
2022/02/09 18:31:12;;;;;;;10.82;4.78;;;6.50;99.90;;;;;;5071261;28;20021;-71
2022/02/09 19:04:03;;;;;;;9.18;4.55;;;6.40;99.90;;;;;;5075313;28;20038;-74
2022/02/09 19:06:39;;;;;;;11.00;4.90;;;6.30;99.90;;;;;;5075409;28;20028;-74
2022/02/09 19:14:30;;;;;;;18.92;6.53;;;6.30;99.90;;;;;;5053334;28;20055;-74
2022/02/09 19:17:19;;;;;;;11.32;5.60;;;6.20;99.90;;;;;;5055194;28;20031;-75
2022/02/09 19:30:44;;;;;;;12.45;4.47;;;6.10;99.90;;;;;;5074711;28;20031;-75
2022/02/09 19:47:05;;;;;;;7.35;3.67;;;6.00;99.90;;;;;;5054623;28;20059;-73
2022/02/09 19:50:31;;;;;;;9.18;4.40;;;5.80;99.90;;;;;;5071435;28;20477;-74
2022/02/09 19:57:12;;;;;;;8.95;3.83;;;5.60;99.90;;;;;;5052819;28;20431;-73
2022/02/09 19:59:39;;;;;;;10.85;4.63;;;5.50;99.90;;;;;;5053566;28;20021;-74
2022/02/09 20:02:10;;;;;;;7.70;4.13;;;5.50;99.90;;;;;;5063585;28;20028;-73
2022/02/09 20:04:38;;;;;;;10.75;4.05;;;5.50;99.90;;;;;;5074240;28;20530;-73
2022/02/09 20:07:04;;;;;;;10.30;4.00;;;5.40;99.90;;;;;;5053921;28;20094;-73
2022/02/09 20:09:30;;;;;;;9.55;4.32;;;5.40;99.90;;;;;;5054247;28;20071;-73
2022/02/09 20:11:55;;;;;;;15.88;5.88;;;5.40;99.90;;;;;;5052633;28;20021;-73
2022/02/09 20:14:21;;;;;;;10.98;4.90;;;5.30;99.90;;;;;;5052812;28;20044;-74
2022/02/09 20:16:47;;;;;;;10.70;5.10;;;5.30;99.90;;;;;;5055708;28;20049;-74
2022/02/09 20:19:13;;;;;;;13.02;5.25;;;5.20;99.90;;;;;;5054114;28;20048;-74
2022/02/09 20:21:40;;;;;;;16.95;6.78;;;5.10;99.90;;;;;;5053277;28;20032;-74
2022/02/09 20:24:11;;;;;;;13.68;5.43;;;5.00;99.90;;;;;;5052619;28;20155;-72
2022/02/09 20:26:37;;;;;;;13.15;5.95;;;4.90;99.90;;;;;;5053507;28;20114;-72
2022/02/09 20:29:09;;;;;;;15.07;5.25;;;4.80;99.90;;;;;;5052295;28;20025;-72
2022/02/09 20:31:48;;;;;;;14.60;5.93;;;4.70;99.90;;;;;;5050696;28;20032;-72
2022/02/09 20:34:32;;;;;;;8.70;5.23;;;4.60;99.90;;;;;;5064406;28;20035;-72
2022/02/09 20:36:58;;;;;;;9.90;4.53;;;4.50;99.90;;;;;;5072973;28;20035;-72
2022/02/09 20:39:29;;;;;;;14.55;6.45;;;4.40;99.90;;;;;;5073148;28;20037;-72
2022/02/09 20:41:57;;;;;;;10.40;5.38;;;4.40;99.90;;;;;;5073576;28;20016;-73
2022/02/09 20:44:31;;;;;;;14.38;5.85;;;4.30;99.90;;;;;;5058428;28;20031;-75
2022/02/09 20:46:58;;;;;;;11.85;5.80;;;4.20;99.90;;;;;;5073546;28;20032;-74
2022/02/09 20:49:25;;;;;;;13.30;5.80;;;4.20;99.90;;;;;;5072574;28;20028;-73
2022/02/09 20:51:51;;;;;;;15.70;5.82;;;4.20;99.90;;;;;;5072983;28;20089;-73
2022/02/09 20:54:17;;;;;;;9.38;5.20;;;4.20;99.90;;;;;;5072218;28;20422;-72
2022/02/09 20:56:42;;;;;;;8.40;4.30;;;4.10;99.90;;;;;;5072720;28;20076;-73
2022/02/09 20:59:11;;;;;;;10.93;5.00;;;4.10;99.90;;;;;;5072273;28;20082;-73
2022/02/09 21:01:45;;;;;;;14.35;5.13;;;4.10;99.90;;;;;;5064158;28;20524;-73
2022/02/09 21:04:14;;;;;;;10.55;4.90;;;4.00;99.90;;;;;;5051932;28;20462;-73
2022/02/09 21:06:58;;;;;;;10.10;3.97;;;4.00;99.90;;;;;;5053161;28;20060;-73
2022/02/09 21:17:20;;;;;;;5.82;3.17;;;3.90;99.90;;;;;;5051731;28;20079;-74
2022/02/09 21:32:53;;;;;;;9.30;4.65;;;3.70;99.90;;;;;;5071230;28;20024;-74
2022/02/09 21:54:19;;;;;;;8.98;4.57;;;3.30;99.90;;;;;;5071309;28;20035;-74
2022/02/09 21:56:59;;;;;;;11.13;4.47;;;3.20;99.90;;;;;;5072303;28;20051;-74
2022/02/09 22:24:16;;;;;;;11.27;5.75;;;2.80;99.90;;;;;;5070306;28;20032;-74
2022/02/09 22:29:28;;;;;;;9.05;4.80;;;2.80;99.90;;;;;;5069241;28;20082;-72
2022/02/09 22:55:41;;;;;;;10.88;5.85;;;2.50;99.90;;;;;;5037985;28;20094;-73
2022/02/09 22:58:09;;;;;;;12.52;5.68;;;2.50;99.90;;;;;;5041243;28;20547;-73
2022/02/09 23:00:38;;;;;;;10.38;6.05;;;2.50;99.90;;;;;;5044248;28;20025;-73
2022/02/09 23:03:06;;;;;;;9.85;5.43;;;2.50;99.90;;;;;;5040644;28;20059;-74
2022/02/09 23:08:44;;;;;;;9.48;5.68;;;2.50;99.90;;;;;;5072030;28;20133;-73
2022/02/09 23:13:45;;;;;;;13.32;5.90;;;2.50;99.90;;;;;;5053205;28;20083;-73
2022/02/09 23:16:46;;;;;;;11.90;6.32;;;2.50;99.90;;;;;;5050792;28;20534;-72
